createdAt,value
2022-10-11T00:01:49.479Z,1.10
2022-10-11T00:06:51.336Z,0.90
2022-10-11T00:11:56.254Z,1.20
2022-10-11T00:16:57.917Z,1.50
2022-10-11T00:21:59.860Z,1.13
2022-10-11T00:27:01.579Z,1.17
2022-10-11T00:32:03.540Z,1.27
2022-10-11T00:37:05.206Z,1.20
2022-10-11T00:42:14.048Z,1.20
2022-10-11T00:47:22.622Z,1.80
2022-10-11T00:52:40.380Z,1.10
2022-10-11T00:57:48.200Z,1.23
2022-10-11T01:02:50.666Z,1.27
2022-10-11T01:07:54.002Z,0.87
2022-10-11T01:13:36.313Z,0.97
2022-10-11T01:19:11.125Z,1.40
2022-10-11T01:25:17.562Z,1.50
2022-10-11T01:30:29.203Z,1.47
2022-10-11T01:35:53.929Z,1.40
2022-10-11T01:41:06.479Z,1.57
2022-10-11T01:46:10.186Z,2.10
2022-10-11T01:51:11.878Z,1.23
2022-10-11T01:56:50.324Z,1.60
2022-10-11T02:02:21.161Z,1.37
2022-10-11T02:07:50.457Z,1.10
2022-10-11T02:13:12.288Z,2.07
2022-10-11T02:18:20.750Z,1.10
2022-10-11T02:23:38.996Z,1.60
2022-10-11T02:28:46.024Z,1.37
2022-10-11T02:34:14.467Z,1.30
2022-10-11T02:39:51.705Z,1.97
2022-10-11T02:45:05.624Z,1.90
2022-10-11T02:50:08.411Z,1.50
2022-10-11T02:55:11.693Z,1.40
2022-10-11T03:00:15.301Z,0.90
2022-10-11T03:05:17.132Z,1.33
2022-10-11T03:10:18.879Z,1.63
2022-10-11T03:15:20.508Z,1.37
2022-10-11T03:20:23.743Z,1.50
2022-10-11T03:25:25.396Z,1.60
2022-10-11T03:30:27.233Z,1.83
2022-10-11T03:35:28.860Z,2.30
2022-10-11T03:40:30.514Z,2.40
2022-10-11T03:45:32.169Z,1.70
2022-10-11T03:50:33.953Z,2.40
2022-10-11T03:55:40.082Z,1.93
2022-10-11T04:00:41.721Z,1.43
2022-10-11T04:05:43.433Z,2.10
2022-10-11T04:10:45.077Z,2.03
2022-10-11T04:15:47.295Z,2.00
2022-10-11T04:20:48.927Z,1.73
2022-10-11T04:25:50.550Z,2.33
2022-10-11T04:30:52.545Z,2.90
2022-10-11T04:35:56.130Z,2.10
2022-10-11T04:41:12.827Z,1.80
2022-10-11T04:46:14.499Z,2.93
2022-10-11T04:51:16.711Z,2.13
2022-10-11T04:56:18.750Z,1.57
2022-10-11T05:01:21.616Z,1.77
2022-10-11T05:06:23.253Z,2.10
2022-10-11T05:11:24.952Z,2.37
2022-10-11T05:16:26.645Z,1.80
2022-10-11T05:21:30.316Z,2.20
2022-10-11T05:26:32.025Z,2.60
2022-10-11T05:31:34.049Z,2.40
2022-10-11T05:36:35.693Z,2.03
2022-10-11T05:41:37.341Z,2.10
2022-10-11T05:46:39.609Z,2.03
2022-10-11T05:51:41.285Z,2.37
2022-10-11T05:56:43.099Z,2.00
2022-10-11T06:01:44.788Z,2.70
2022-10-11T06:06:46.446Z,1.93
2022-10-11T06:11:48.232Z,2.40
2022-10-11T06:16:49.883Z,2.87
2022-10-11T06:21:52.177Z,2.20
2022-10-11T06:26:54.493Z,2.80
2022-10-11T06:31:56.270Z,2.17
2022-10-11T06:36:57.933Z,3.10
2022-10-11T06:41:59.619Z,2.67
2022-10-11T06:47:01.348Z,3.43
2022-10-11T06:52:03.129Z,2.97
2022-10-11T06:57:04.765Z,2.77
2022-10-11T07:02:06.906Z,3.40
2022-10-11T07:07:08.580Z,3.40
2022-10-11T07:12:10.315Z,2.70
2022-10-11T07:17:11.985Z,4.20
2022-10-11T07:22:13.649Z,3.57
2022-10-11T07:27:15.292Z,3.73
2022-10-11T07:32:16.957Z,2.80
2022-10-11T07:37:18.615Z,2.58
2022-10-11T07:42:21.918Z,2.50
2022-10-11T07:47:23.697Z,1.90
2022-10-11T07:52:25.361Z,4.23
2022-10-11T07:57:27.045Z,2.33
2022-10-11T08:02:28.681Z,3.33
2022-10-11T08:07:30.372Z,2.93
2022-10-11T08:12:32.695Z,3.50
2022-10-11T08:17:34.601Z,1.73
2022-10-11T08:22:36.346Z,1.90
2022-10-11T08:27:38.083Z,2.63
2022-10-11T08:32:39.770Z,2.03
2022-10-11T08:37:41.475Z,2.20
2022-10-11T08:43:02.966Z,2.10
2022-10-11T08:48:45.448Z,1.93
2022-10-11T08:54:45.308Z,2.07
2022-10-11T08:59:57.905Z,2.13
2022-10-11T09:05:00.144Z,1.67
2022-10-11T09:10:54.807Z,2.23
2022-10-11T09:16:30.022Z,1.73
2022-10-11T09:22:07.999Z,1.90
2022-10-11T09:27:50.385Z,1.53
2022-10-11T09:33:18.018Z,2.33
2022-10-11T09:39:16.795Z,1.90
2022-10-11T09:44:29.936Z,1.47
2022-10-11T09:49:44.942Z,2.10
2022-10-11T09:55:01.341Z,2.23
2022-10-11T10:00:11.958Z,2.20
2022-10-11T10:05:19.465Z,1.90
2022-10-11T10:10:39.676Z,1.23
2022-10-11T10:15:48.502Z,1.87
2022-10-11T10:21:02.043Z,4.57
2022-10-11T10:26:31.372Z,2.00
2022-10-11T10:32:13.302Z,2.40
2022-10-11T10:37:33.619Z,1.30
2022-10-11T10:42:35.609Z,1.47
2022-10-11T10:48:18.277Z,1.50
2022-10-11T10:53:38.944Z,1.70
2022-10-11T10:59:25.058Z,2.50
2022-10-11T11:04:34.086Z,2.57
2022-10-11T11:10:11.698Z,1.90
2022-10-11T11:15:37.731Z,1.97
2022-10-11T11:21:19.063Z,1.93
2022-10-11T11:26:55.725Z,1.90
2022-10-11T11:32:46.563Z,1.43
2022-10-11T11:37:59.279Z,1.70
2022-10-11T11:43:28.061Z,1.50
2022-10-11T11:48:29.946Z,1.80
2022-10-11T11:53:46.501Z,1.30
2022-10-11T11:59:19.501Z,1.23
2022-10-11T12:04:31.444Z,1.00
2022-10-11T12:09:36.810Z,2.07
2022-10-11T12:14:42.770Z,1.03
2022-10-11T12:20:41.230Z,2.10
2022-10-11T12:25:45.357Z,1.60
2022-10-11T12:30:47.029Z,1.33
2022-10-11T12:35:54.854Z,1.47
2022-10-11T12:41:20.233Z,2.83
2022-10-11T12:46:33.726Z,1.23
2022-10-11T12:52:02.542Z,1.43
2022-10-11T12:58:05.894Z,1.07
2022-10-11T13:03:33.588Z,4.27
2022-10-11T13:08:43.214Z,1.33
2022-10-11T13:13:58.729Z,1.50
2022-10-11T13:19:00.490Z,1.00
2022-10-11T13:24:18.320Z,1.00
2022-10-11T13:29:40.480Z,1.60
2022-10-11T13:34:49.037Z,1.40
2022-10-11T13:39:56.711Z,1.40
2022-10-11T13:45:00.591Z,1.30
2022-10-11T13:50:24.077Z,1.00
2022-10-11T13:55:47.322Z,1.30
2022-10-11T14:01:05.595Z,1.27
2022-10-11T14:06:08.166Z,1.40
2022-10-11T14:11:13.251Z,2.00
2022-10-11T14:16:21.640Z,1.00
2022-10-11T14:21:46.925Z,1.40
2022-10-11T14:26:53.625Z,2.17
2022-10-11T14:32:06.375Z,1.23
2022-10-11T14:37:10.339Z,1.20
2022-10-11T14:42:12.486Z,1.30
2022-10-11T14:47:17.155Z,0.97
2022-10-11T14:52:18.926Z,1.20
2022-10-11T14:57:20.682Z,1.40
2022-10-11T15:02:22.330Z,1.10
2022-10-11T15:07:23.984Z,1.57
2022-10-11T15:12:25.667Z,1.20
2022-10-11T15:17:27.326Z,1.63
2022-10-11T15:22:28.979Z,2.20
2022-10-11T15:27:30.617Z,1.30
2022-10-11T15:32:32.304Z,1.80
2022-10-11T15:37:37.333Z,2.23
2022-10-11T15:42:39.352Z,1.67
2022-10-11T15:47:41.031Z,1.23
2022-10-11T15:52:42.695Z,2.30
2022-10-11T15:57:44.720Z,1.93
2022-10-11T16:02:46.491Z,1.83
2022-10-11T16:07:48.693Z,2.07
2022-10-11T16:12:50.549Z,2.50
2022-10-11T16:17:52.301Z,2.33
2022-10-11T16:22:55.206Z,2.93
2022-10-11T16:27:56.968Z,2.53
2022-10-11T16:32:58.653Z,3.30
2022-10-11T16:38:01.465Z,3.40
2022-10-11T16:43:07.452Z,2.70
2022-10-11T16:48:10.946Z,3.20
2022-10-11T16:53:15.493Z,4.17
2022-10-11T16:58:17.183Z,4.20
2022-10-11T17:03:18.829Z,4.03
2022-10-11T17:08:20.481Z,3.50
2022-10-11T17:13:23.430Z,3.47
2022-10-11T17:18:25.300Z,4.40
2022-10-11T17:23:26.930Z,4.17
2022-10-11T17:28:30.963Z,4.67
2022-10-11T17:33:33.761Z,4.47
2022-10-11T17:38:35.413Z,5.00
2022-10-11T17:43:37.545Z,4.43
2022-10-11T17:48:39.887Z,4.13
2022-10-11T17:53:42.928Z,4.27
2022-10-11T17:58:45.364Z,3.30
2022-10-11T18:03:58.650Z,5.80
2022-10-11T18:09:03.749Z,5.47
2022-10-11T18:14:05.759Z,4.90
2022-10-11T18:19:12.756Z,4.53
2022-10-11T18:24:16.907Z,5.10
2022-10-11T18:29:18.583Z,5.07
2022-10-11T18:34:20.245Z,6.23
2022-10-11T18:39:22.099Z,5.20
2022-10-11T18:44:23.778Z,6.03
2022-10-11T18:49:25.684Z,14.57
2022-10-11T18:54:27.518Z,6.37
2022-10-11T18:59:29.212Z,6.13
2022-10-11T19:04:34.124Z,7.83
2022-10-11T19:09:35.803Z,6.40
2022-10-11T19:14:37.496Z,5.47
2022-10-11T19:19:39.470Z,5.60
2022-10-11T19:24:43.566Z,6.00
2022-10-11T19:29:45.318Z,4.90
2022-10-11T19:34:46.982Z,7.27
2022-10-11T19:39:48.620Z,18.90
2022-10-11T19:44:50.254Z,6.27
2022-10-11T19:49:51.893Z,5.90
2022-10-11T19:54:53.611Z,5.63
2022-10-11T19:59:55.348Z,4.93
2022-10-11T20:04:56.994Z,5.90
2022-10-11T20:09:58.634Z,6.43
2022-10-11T20:15:00.261Z,5.70
2022-10-11T20:20:01.914Z,4.97
2022-10-11T20:25:03.811Z,5.63
2022-10-11T20:30:06.082Z,7.00
2022-10-11T20:35:09.377Z,6.20
2022-10-11T20:40:12.357Z,7.53
2022-10-11T20:45:14.038Z,7.67
2022-10-11T20:50:19.523Z,6.70
2022-10-11T20:55:23.857Z,6.30
2022-10-11T21:00:25.535Z,6.37
2022-10-11T21:05:27.201Z,6.50
2022-10-11T21:10:28.989Z,5.70
2022-10-11T21:15:32.247Z,6.17
2022-10-11T21:20:39.630Z,6.70
2022-10-11T21:25:41.541Z,6.67
2022-10-11T21:30:43.202Z,7.93
2022-10-11T21:35:44.897Z,8.00
2022-10-11T21:40:47.335Z,8.83
2022-10-11T21:45:49.013Z,8.83
2022-10-11T21:50:55.087Z,9.97
2022-10-11T21:55:59.262Z,9.30
2022-10-11T22:01:00.966Z,13.17
2022-10-11T22:06:04.419Z,12.10
2022-10-11T22:11:07.462Z,11.53
2022-10-11T22:16:13.479Z,14.33
2022-10-11T22:21:23.253Z,12.97
2022-10-11T22:26:31.282Z,12.53
2022-10-11T22:31:34.525Z,11.50
2022-10-11T22:36:36.209Z,9.60
2022-10-11T22:41:38.134Z,10.50
2022-10-11T22:46:39.781Z,8.50
2022-10-11T22:51:41.473Z,9.43
2022-10-11T22:56:43.217Z,7.40
2022-10-11T23:01:44.909Z,8.17
2022-10-11T23:06:47.622Z,8.93
2022-10-11T23:11:49.245Z,9.97
2022-10-11T23:16:52.032Z,9.17
2022-10-11T23:21:53.684Z,9.20
2022-10-11T23:26:55.412Z,8.90
2022-10-11T23:31:57.074Z,8.77
2022-10-11T23:36:58.739Z,8.30
2022-10-11T23:42:00.365Z,9.60
2022-10-11T23:47:02.116Z,10.03
2022-10-11T23:52:03.763Z,7.47
2022-10-11T23:57:05.424Z,7.40
